Terminal Aerodrome Forecast
Issued by NWS

Home | Current Version | Previous Version | Text Only | Print | Product List | Glossary On
Versions: 1 2 3 4 5 6 7 8 9 10 11 12
756
FTUS44 KCRP 121122
TAFLRD
TAF
KLRD 121122Z 1212/1312 15008KT P6SM SKC
      TEMPO 1212/1214 3SM BR BKN010
     FM122000 12006KT P6SM FEW250
     FM130800 12004KT P6SM FEW010=

USA.gov is the U.S. government's official web portal to all federal, state and local government web resources and services.